Time;durP1;ratioP1;P1;durP2;ratioP2;P2;SDS_P1;SDS_P2;PMS_P1;PMS_P2;Temp;Humidity;BMP_temperature;BMP_pressure;BME280_temperature;BME280_humidity;BME280_pressure;Samples;Min_cycle;Max_cycle;Signal;HPM_P1;HPM_P2
2021/04/29 10:51:36;;;;;;;13.30;7.47;;;;;;;14.31;37.90;98648.16;1788347;78;22665;-76
2021/04/29 10:54:19;;;;;;;37.17;11.43;;;;;;;14.35;37.81;98653.53;1766744;80;21144;-76
2021/04/29 10:57:12;;;;;;;14.73;8.40;;;;;;;14.39;38.00;98653.63;1757935;80;21199;-76
2021/04/29 10:59:51;;;;;;;10.55;7.53;;;;;;;14.34;37.83;98663.69;1771465;80;21685;-76
2021/04/29 11:02:36;;;;;;;13.83;8.08;;;;;;;14.15;37.86;98649.86;1735212;80;21218;-76
2021/04/29 11:05:11;;;;;;;16.23;8.28;;;;;;;14.00;38.19;98665.04;1769012;80;21079;-76
2021/04/29 11:07:46;;;;;;;11.80;7.72;;;;;;;13.95;38.43;98656.69;1763009;80;21017;-76
2021/04/29 11:10:16;;;;;;;11.85;8.35;;;;;;;13.88;38.56;98648.44;1768413;80;21213;-77
2021/04/29 11:12:49;;;;;;;13.80;7.65;;;;;;;13.90;38.77;98653.58;1768367;80;21045;-76
2021/04/29 11:15:33;;;;;;;15.63;8.48;;;;;;;13.82;38.74;98650.72;1771701;79;21011;-76
2021/04/29 11:18:10;;;;;;;10.48;7.20;;;;;;;13.79;38.90;98648.33;1772483;80;21448;-76
2021/04/29 11:20:47;;;;;;;14.78;7.00;;;;;;;13.63;38.87;98652.13;1767756;80;21582;-77
2021/04/29 11:23:27;;;;;;;11.60;7.05;;;;;;;13.51;39.03;98651.77;1766429;80;21714;-75
2021/04/29 11:26:05;;;;;;;;;;;;;;;13.47;39.29;98650.79;1732008;81;21677;-76
2021/04/29 11:28:32;;;;;;;19.27;7.92;;;;;;;13.48;39.48;98651.17;1701219;81;20273;-77
2021/04/29 11:30:59;;;;;;;13.32;7.28;;;;;;;13.52;39.48;98656.05;1733599;82;21197;-76
2021/04/29 11:33:35;;;;;;;15.38;7.65;;;;;;;13.55;39.51;98654.49;1703480;83;21160;-76
2021/04/29 11:36:21;;;;;;;15.15;7.42;;;;;;;13.47;39.51;98642.92;1708459;83;21311;-76
2021/04/29 11:39:05;;;;;;;13.85;7.72;;;;;;;13.39;39.69;98648.77;1706827;83;21303;-77
2021/04/29 11:41:32;;;;;;;16.95;8.53;;;;;;;13.30;39.86;98649.45;1703598;83;21133;-76
2021/04/29 11:44:06;;;;;;;22.40;7.90;;;;;;;13.21;40.03;98654.40;1701805;83;21283;-76
2021/04/29 11:46:35;;;;;;;15.25;7.53;;;;;;;13.23;40.23;98648.22;1732263;82;21178;-76
2021/04/29 11:49:06;;;;;;;10.48;6.92;;;;;;;13.26;40.37;98646.71;1732511;81;21372;-76
2021/04/29 11:51:46;;;;;;;28.12;8.45;;;;;;;13.26;40.56;98655.88;1735396;81;21780;-76
2021/04/29 11:54:17;;;;;;;11.43;7.05;;;;;;;13.26;40.67;98653.27;1740508;81;21232;-76
2021/04/29 11:56:49;;;;;;;15.20;7.62;;;;;;;13.21;40.91;98646.53;1738316;81;21231;-76
2021/04/29 11:59:17;;;;;;;14.68;7.53;;;;;;;13.23;40.95;98654.78;1738278;81;21157;-77
2021/04/29 12:01:57;;;;;;;34.98;8.40;;;;;;;13.27;41.19;98656.23;1736531;81;21316;-76
2021/04/29 12:04:25;;;;;;;13.95;7.33;;;;;;;13.26;41.35;98661.13;1736658;81;21151;-78
2021/04/29 12:06:55;;;;;;;11.53;5.05;;;;;;;13.25;41.53;98664.65;1737224;81;21188;-78
2021/04/29 12:09:25;;;;;;;8.68;5.05;;;;;;;13.24;41.74;98665.61;1736151;81;21111;-77
2021/04/29 12:11:54;;;;;;;7.83;4.67;;;;;;;13.11;41.88;98663.92;1721031;82;21075;-77
2021/04/29 12:14:27;;;;;;;11.48;5.08;;;;;;;13.06;42.27;98667.35;1717570;81;21404;-77
2021/04/29 12:17:03;;;;;;;8.38;4.62;;;;;;;12.97;42.26;98670.18;1724183;82;21247;-77
2021/04/29 12:19:32;;;;;;;7.75;4.78;;;;;;;12.83;42.49;98669.53;1704150;81;21649;-77
2021/04/29 12:22:00;;;;;;;7.85;5.72;;;;;;;12.72;42.74;98672.45;1716182;82;21244;-76
2021/04/29 12:24:42;;;;;;;37.65;19.92;;;;;;;12.56;43.10;98672.36;1773754;80;21191;-77
2021/04/29 12:27:21;;;;;;;10.28;6.60;;;;;;;12.34;43.33;98676.98;1765794;80;21236;-77
2021/04/29 12:30:05;;;;;;;8.35;5.12;;;;;;;11.62;44.26;98655.34;1768208;79;21233;-76
2021/04/29 12:32:44;;;;;;;14.35;7.30;;;;;;;11.62;44.26;98655.34;1712065;81;21646;-77
2021/04/29 12:35:35;;;;;;;8.05;5.70;;;;;;;11.46;44.78;98684.31;1719624;82;21180;-77
2021/04/29 12:38:20;;;;;;;11.90;6.70;;;;;;;11.27;45.28;98677.34;1704512;83;21032;-77
2021/04/29 12:40:49;;;;;;;8.23;6.70;;;;;;;11.09;45.48;98679.38;1684137;83;21297;-77
2021/04/29 12:43:23;;;;;;;7.62;6.37;;;;;;;11.01;46.16;98675.98;1696030;83;21166;-77
2021/04/29 12:45:56;;;;;;;11.03;7.55;;;;;;;10.91;46.51;98667.90;1690322;82;21267;-76
2021/04/29 12:48:38;;;;;;;6.67;5.67;;;;;;;10.86;46.83;98679.11;1689159;84;21202;-74
2021/04/29 12:51:13;;;;;;;7.15;5.90;;;;;;;10.81;47.49;98672.06;1686837;84;21217;-73
2021/04/29 12:53:54;;;;;;;14.40;5.95;;;;;;;10.76;47.51;98679.36;1679725;84;23172;-74
2021/04/29 12:56:34;;;;;;;9.38;6.35;;;;;;;10.76;46.87;98672.83;1695299;82;21127;-78
2021/04/29 12:59:16;;;;;;;7.62;5.53;;;;;;;10.87;47.22;98670.36;1692716;84;21180;-77
2021/04/29 13:01:48;;;;;;;8.00;5.42;;;;;;;10.89;47.26;98672.38;1694529;84;21158;-75
2021/04/29 13:04:25;;;;;;;6.53;5.25;;;;;;;10.82;47.54;98665.06;1701391;83;21676;-74
2021/04/29 13:06:59;;;;;;;9.90;5.65;;;;;;;10.76;47.89;98671.52;1688685;83;21263;-72
2021/04/29 13:09:41;;;;;;;8.23;6.08;;;;;;;10.70;47.97;98677.15;1695453;83;21262;-78
2021/04/29 13:12:14;;;;;;;6.78;5.65;;;;;;;10.63;48.29;98674.08;1696039;83;21156;-74
2021/04/29 13:14:45;;;;;;;10.15;6.47;;;;;;;10.60;48.47;98666.44;1693885;83;21172;-74
2021/04/29 13:17:21;;;;;;;25.43;14.58;;;;;;;10.59;48.84;98674.39;1695460;83;21341;-74
2021/04/29 13:20:05;;;;;;;11.93;6.62;;;;;;;10.58;48.95;98672.69;1698734;83;21204;-74
2021/04/29 13:22:33;;;;;;;7.33;5.75;;;;;;;10.57;49.37;98665.81;1691246;83;21674;-75
2021/04/29 13:25:04;;;;;;;13.30;8.60;;;;;;;10.58;49.44;98657.03;1693936;83;21176;-77
2021/04/29 13:27:31;;;;;;;9.55;7.75;;;;;;;10.61;49.82;98656.83;1697959;83;21025;-74
2021/04/29 13:29:59;;;;;;;12.33;6.80;;;;;;;10.62;49.77;98657.22;1694378;83;21643;-77
2021/04/29 13:32:31;;;;;;;11.95;6.80;;;;;;;10.61;50.04;98657.66;1697527;83;21448;-76
2021/04/29 13:35:00;;;;;;;8.10;6.22;;;;;;;10.59;50.33;98654.34;1693202;82;21690;-76
2021/04/29 13:37:29;;;;;;;7.75;5.78;;;;;;;10.59;50.68;98657.42;1695186;83;21737;-76
2021/04/29 13:39:57;;;;;;;10.75;6.00;;;;;;;10.58;50.78;98655.73;1695640;83;21277;-76
2021/04/29 13:42:24;;;;;;;7.65;5.53;;;;;;;10.57;50.95;98655.37;1690418;82;21820;-77
2021/04/29 13:44:52;;;;;;;7.00;5.55;;;;;;;10.56;51.17;98651.06;1686382;84;26658;-77
2021/04/29 13:47:20;;;;;;;10.32;5.03;;;;;;;10.55;51.15;98645.48;1691255;83;21105;-76
2021/04/29 13:49:47;;;;;;;12.70;8.85;;;;;;;10.52;51.67;98647.82;1692761;82;21070;-76
2021/04/29 13:52:14;;;;;;;9.85;7.85;;;;;;;10.49;51.61;98641.02;1684778;84;21323;-76
2021/04/29 13:54:41;;;;;;;10.60;7.05;;;;;;;10.42;51.89;98634.54;1681357;84;21237;-76
2021/04/29 13:57:08;;;;;;;10.65;7.60;;;;;;;10.39;52.20;98632.13;1679634;84;21226;-75
2021/04/29 13:59:36;;;;;;;11.00;6.75;;;;;;;10.34;52.26;98630.75;1687544;83;21218;-76
2021/04/29 14:02:04;;;;;;;10.48;7.75;;;;;;;10.31;52.51;98626.56;1688524;83;21098;-76
2021/04/29 14:04:31;;;;;;;9.10;8.08;;;;;;;10.31;52.86;98618.73;1676395;84;21240;-76
2021/04/29 14:06:58;;;;;;;10.95;7.30;;;;;;;10.31;52.99;98613.52;1681216;84;21313;-77
2021/04/29 14:09:25;;;;;;;11.43;8.70;;;;;;;10.36;53.30;98613.20;1679032;84;22081;-76
2021/04/29 14:11:52;;;;;;;9.48;7.83;;;;;;;10.37;53.55;98602.68;1680724;84;21632;-76
2021/04/29 14:14:19;;;;;;;9.98;7.22;;;;;;;10.40;53.78;98606.39;1676144;84;21240;-76
2021/04/29 14:16:46;;;;;;;9.23;7.35;;;;;;;10.46;54.15;98602.08;1691496;83;21039;-76
2021/04/29 14:19:16;;;;;;;9.78;8.03;;;;;;;10.46;54.43;98606.47;1688791;83;21159;-75
2021/04/29 14:21:45;;;;;;;10.43;7.37;;;;;;;10.43;54.58;98607.50;1690190;84;21238;-73
2021/04/29 14:24:13;;;;;;;9.85;7.55;;;;;;;10.41;54.63;98613.27;1693573;83;21258;-75
2021/04/29 14:26:40;;;;;;;;;;;;;;;10.41;54.84;98604.14;1680837;83;21243;-76
2021/04/29 14:29:07;;;;;;;23.83;14.83;;;;;;;10.37;54.89;98592.24;1697746;83;20390;-75
2021/04/29 14:31:34;;;;;;;27.10;16.55;;;;;;;10.35;55.03;98592.80;1688611;84;21235;-76
2021/04/29 14:34:02;;;;;;;23.05;15.85;;;;;;;10.36;55.09;98590.55;1675287;83;21659;-76
2021/04/29 14:36:29;;;;;;;;;;;;;;;10.36;55.24;98582.72;1689002;84;21736;-76
2021/04/29 14:38:56;;;;;;;23.70;14.85;;;;;;;10.34;55.36;98581.17;1690332;84;20284;-76
2021/04/29 14:41:23;;;;;;;33.15;17.35;;;;;;;10.32;55.42;98583.87;1692266;84;21155;-74
2021/04/29 14:43:50;;;;;;;;;;;;;;;10.32;55.66;98578.66;1687836;84;21173;-77
2021/04/29 14:46:17;;;;;;;14.25;9.33;;;;;;;10.33;55.54;98574.27;1694854;83;21331;-75
2021/04/29 14:48:44;;;;;;;11.35;8.18;;;;;;;10.35;55.61;98574.53;1698653;83;21247;-75
2021/04/29 14:51:12;;;;;;;9.93;7.97;;;;;;;10.33;55.73;98569.88;1700791;83;21905;-75
2021/04/29 14:53:39;;;;;;;11.28;9.38;;;;;;;10.26;55.82;98565.50;1691238;83;21144;-75
2021/04/29 14:56:06;;;;;;;15.68;10.63;;;;;;;10.23;55.92;98551.83;1686298;82;21212;-75
2021/04/29 14:58:34;;;;;;;12.30;9.03;;;;;;;10.27;56.20;98549.41;1683805;83;21223;-75
2021/04/29 15:01:02;;;;;;;11.05;8.38;;;;;;;10.33;56.26;98545.56;1690463;84;21250;-75
2021/04/29 15:03:30;;;;;;;16.77;9.23;;;;;;;10.39;56.31;98551.23;1681084;84;21093;-75
2021/04/29 15:05:58;;;;;;;11.90;7.97;;;;;;;10.41;56.62;98537.60;1693232;84;21681;-75
2021/04/29 15:08:26;;;;;;;17.82;9.98;;;;;;;10.42;56.50;98540.59;1694541;82;21188;-75
2021/04/29 15:10:53;;;;;;;;;;;;;;;10.40;56.60;98537.25;1695616;82;21286;-76
2021/04/29 15:13:20;;;;;;;12.28;9.13;;;;;;;10.39;56.80;98532.97;1696171;83;20223;-76
2021/04/29 15:15:48;;;;;;;16.70;10.78;;;;;;;10.35;56.79;98536.70;1699364;83;21630;-75
2021/04/29 15:18:14;;;;;;;12.45;9.90;;;;;;;10.29;56.73;98528.81;1667558;85;21243;-76
2021/04/29 15:20:41;;;;;;;17.75;10.98;;;;;;;10.27;56.76;98531.14;1667629;85;21664;-75
2021/04/29 15:23:08;;;;;;;15.85;12.20;;;;;;;10.24;56.81;98528.70;1682010;84;22069;-75
2021/04/29 15:25:35;;;;;;;12.47;10.13;;;;;;;10.16;56.95;98525.75;1661020;85;21279;-75
2021/04/29 15:28:02;;;;;;;10.88;8.98;;;;;;;10.09;56.96;98520.94;1696061;84;21238;-75
2021/04/29 15:30:30;;;;;;;16.85;10.60;;;;;;;10.03;57.08;98517.90;1700014;84;21255;-75
2021/04/29 15:32:57;;;;;;;12.82;10.58;;;;;;;9.95;57.28;98518.38;1700149;83;21251;-75
2021/04/29 15:35:24;;;;;;;13.88;10.95;;;;;;;9.87;57.29;98519.34;1698503;83;21223;-75
2021/04/29 15:37:51;;;;;;;12.33;8.18;;;;;;;9.83;57.27;98516.09;1684233;84;21295;-76
2021/04/29 15:40:18;;;;;;;11.88;7.58;;;;;;;9.79;57.45;98512.47;1684038;84;21658;-75
2021/04/29 15:42:45;;;;;;;11.57;8.25;;;;;;;9.72;57.69;98504.20;1691537;82;21204;-75
2021/04/29 15:45:15;;;;;;;12.23;7.85;;;;;;;9.68;57.56;98501.88;1692166;84;27215;-75
2021/04/29 15:47:42;;;;;;;17.82;9.05;;;;;;;9.59;57.72;98498.91;1701192;83;21661;-75
2021/04/29 15:50:10;;;;;;;;;;;;;;;9.56;57.87;98489.98;1700993;82;21272;-75
2021/04/29 15:52:37;;;;;;;13.58;8.78;;;;;;;9.51;57.96;98492.52;1691605;83;20346;-75
2021/04/29 15:55:09;;;;;;;11.57;7.92;;;;;;;9.44;57.94;98486.00;1690608;83;21280;-75
2021/04/29 15:57:38;;;;;;;12.45;8.45;;;;;;;9.38;58.10;98488.52;1696705;82;21282;-75
2021/04/29 16:00:09;;;;;;;10.90;8.10;;;;;;;9.31;58.13;98476.82;1690577;82;22691;-75
2021/04/29 16:02:38;;;;;;;10.38;8.83;;;;;;;9.23;58.25;98482.50;1668268;85;21313;-75
2021/04/29 16:05:07;;;;;;;13.83;9.20;;;;;;;9.16;58.42;98472.93;1694626;83;21183;-75
2021/04/29 16:07:35;;;;;;;13.03;10.65;;;;;;;9.09;58.58;98472.92;1695556;83;21218;-75
2021/04/29 16:10:06;;;;;;;10.72;8.10;;;;;;;8.99;58.83;98470.53;1694800;83;21215;-75
2021/04/29 16:12:34;;;;;;;11.60;8.80;;;;;;;8.91;58.88;98467.55;1700436;83;21206;-75
2021/04/29 16:15:02;;;;;;;8.75;7.60;;;;;;;8.85;59.10;98457.48;1696277;83;21759;-75
2021/04/29 16:17:30;;;;;;;13.38;7.87;;;;;;;8.77;59.19;98456.66;1696045;83;21252;-76
2021/04/29 16:19:57;;;;;;;12.43;8.90;;;;;;;8.72;59.36;98458.23;1668306;84;21198;-76
2021/04/29 16:22:24;;;;;;;11.75;8.88;;;;;;;8.66;59.50;98452.56;1699023;83;21234;-75
2021/04/29 16:24:52;;;;;;;15.18;10.05;;;;;;;8.61;59.70;98445.02;1701687;83;21531;-76
2021/04/29 16:27:22;;;;;;;12.85;9.50;;;;;;;8.56;59.85;98446.23;1699801;83;21855;-75
2021/04/29 16:29:50;;;;;;;12.70;9.28;;;;;;;8.49;60.11;98443.99;1700945;83;21209;-76
2021/04/29 16:32:22;;;;;;;13.30;10.40;;;;;;;8.42;60.34;98439.23;1699325;83;21737;-76
2021/04/29 16:34:50;;;;;;;15.63;12.25;;;;;;;8.37;60.85;98443.83;1702868;83;21251;-75
2021/04/29 16:37:18;;;;;;;17.60;12.43;;;;;;;8.32;60.92;98445.86;1698385;82;22374;-74
2021/04/29 16:39:45;;;;;;;16.73;11.60;;;;;;;8.26;61.11;98437.52;1693512;82;21223;-75
2021/04/29 16:42:15;;;;;;;18.52;11.95;;;;;;;8.21;61.16;98437.41;1696036;82;26881;-75
2021/04/29 16:44:42;;;;;;;17.45;10.88;;;;;;;8.16;61.37;98438.96;1680272;83;21169;-76
2021/04/29 16:47:09;;;;;;;13.25;9.63;;;;;;;8.13;61.62;98435.24;1679194;84;21201;-75
2021/04/29 16:49:36;;;;;;;17.20;10.40;;;;;;;8.11;62.85;98431.88;1680772;84;21260;-76
2021/04/29 16:52:03;;;;;;;22.85;13.35;;;;;;;8.07;62.56;98425.20;1679110;84;21066;-76
2021/04/29 16:54:30;;;;;;;14.78;10.23;;;;;;;8.04;62.66;98424.08;1693754;83;22191;-76
2021/04/29 16:56:59;;;;;;;14.83;11.03;;;;;;;8.05;62.95;98423.14;1686583;82;21199;-76
2021/04/29 16:59:26;;;;;;;16.17;10.48;;;;;;;8.05;62.87;98428.34;1689361;83;21714;-76
2021/04/29 17:01:53;;;;;;;16.05;10.90;;;;;;;8.03;63.19;98427.59;1687000;83;21217;-76
2021/04/29 17:04:20;;;;;;;15.72;9.90;;;;;;;8.01;62.89;98421.63;1691984;83;21191;-76
2021/04/29 17:06:46;;;;;;;12.50;9.30;;;;;;;7.97;63.21;98417.55;1692022;83;21163;-75
2021/04/29 17:09:14;;;;;;;17.30;11.43;;;;;;;7.96;63.53;98409.39;1693769;82;21264;-74
2021/04/29 17:11:48;;;;;;;15.78;11.28;;;;;;;7.95;63.55;98406.39;1686956;83;21152;-74
2021/04/29 17:14:10;;;;;;;14.05;10.55;;;;;;;7.90;63.62;98401.92;1686425;82;21224;-74
2021/04/29 17:16:37;;;;;;;19.60;11.75;;;;;;;7.89;64.13;98401.55;1689364;83;21199;-74
2021/04/29 17:19:05;;;;;;;17.02;12.20;;;;;;;7.84;63.95;98392.27;1694323;83;21274;-74
2021/04/29 17:21:32;;;;;;;11.25;9.65;;;;;;;7.81;64.12;98402.84;1694407;83;21539;-74
2021/04/29 17:23:59;;;;;;;16.05;10.58;;;;;;;7.78;64.72;98401.69;1693640;82;21207;-74
2021/04/29 17:26:27;;;;;;;16.25;12.28;;;;;;;7.75;64.44;98408.36;1690922;82;21667;-74
2021/04/29 17:28:54;;;;;;;19.82;12.47;;;;;;;7.71;64.83;98401.69;1696619;83;21673;-74
2021/04/29 17:31:22;;;;;;;13.55;11.00;;;;;;;7.69;64.92;98406.12;1691550;83;21431;-74
2021/04/29 17:33:49;;;;;;;12.03;9.83;;;;;;;7.66;65.04;98399.80;1687450;83;21232;-72
2021/04/29 17:36:16;;;;;;;12.90;9.50;;;;;;;7.64;65.72;98405.53;1695369;83;21229;-74
2021/04/29 17:38:43;;;;;;;;;;;;;;;7.59;65.86;98410.18;1679548;84;21231;-74
2021/04/29 17:41:10;;;;;;;;;;;;;;;7.56;66.20;98418.11;1682881;84;20144;-74
2021/04/29 17:43:37;;;;;;;13.50;10.18;;;;;;;7.52;66.44;98414.03;1698078;82;20234;-74
2021/04/29 17:46:06;;;;;;;14.70;10.75;;;;;;;7.48;66.10;98416.40;1696183;83;25882;-74
2021/04/29 17:48:33;;;;;;;14.65;11.57;;;;;;;7.45;65.86;98411.38;1682577;84;22178;-74
2021/04/29 17:51:00;;;;;;;14.78;12.03;;;;;;;7.45;66.09;98410.95;1678923;84;21225;-74
2021/04/29 17:53:27;;;;;;;13.93;10.35;;;;;;;7.48;66.04;98418.56;1684520;84;21142;-74
2021/04/29 17:55:55;;;;;;;11.48;9.23;;;;;;;7.46;66.25;98419.56;1682288;84;21217;-74
2021/04/29 17:58:22;;;;;;;12.65;9.68;;;;;;;7.45;66.61;98417.88;1687274;82;21251;-74
2021/04/29 18:00:50;;;;;;;10.65;9.35;;;;;;;7.44;66.37;98418.80;1679436;84;21219;-74
2021/04/29 18:03:17;;;;;;;12.28;10.48;;;;;;;7.43;66.49;98418.44;1660015;84;22170;-74
2021/04/29 18:05:44;;;;;;;11.03;9.85;;;;;;;7.40;66.53;98417.68;1669504;85;21244;-74
2021/04/29 18:08:12;;;;;;;14.43;9.55;;;;;;;7.42;66.63;98418.05;1661571;84;21614;-73
2021/04/29 18:10:40;;;;;;;14.58;11.38;;;;;;;7.41;66.78;98421.11;1662713;84;21252;-72
2021/04/29 18:13:07;;;;;;;10.80;8.98;;;;;;;7.39;67.12;98422.51;1665598;85;21322;-75
2021/04/29 18:15:34;;;;;;;11.30;9.93;;;;;;;7.38;67.21;98426.01;1661628;85;21282;-75
2021/04/29 18:18:01;;;;;;;12.68;11.20;;;;;;;7.39;67.03;98422.51;1648120;85;21192;-75
2021/04/29 18:20:29;;;;;;;13.83;10.75;;;;;;;7.39;67.09;98422.51;1666798;85;21187;-75
2021/04/29 18:22:56;;;;;;;15.45;11.38;;;;;;;7.39;67.14;98422.51;1684045;84;21629;-75
2021/04/29 18:25:22;;;;;;;14.98;11.33;;;;;;;7.42;67.11;98420.64;1678798;83;21347;-75
2021/04/29 18:27:51;;;;;;;15.18;11.97;;;;;;;7.42;67.32;98418.05;1680613;84;21279;-75
2021/04/29 18:30:23;;;;;;;14.68;11.83;;;;;;;7.42;67.27;98414.15;1682689;83;21068;-75
2021/04/29 18:32:50;;;;;;;15.40;12.10;;;;;;;7.42;67.52;98408.48;1682624;84;21191;-75
2021/04/29 18:35:17;;;;;;;16.93;12.45;;;;;;;7.40;67.55;98405.99;1682111;84;21163;-75
2021/04/29 18:37:44;;;;;;;16.65;11.88;;;;;;;7.39;67.73;98400.44;1683688;84;26967;-75
2021/04/29 18:40:14;;;;;;;18.30;11.78;;;;;;;7.38;67.83;98402.64;1670502;83;22170;-75
2021/04/29 18:42:42;;;;;;;15.15;12.60;;;;;;;7.38;68.12;98397.91;1668893;84;21212;-75
2021/04/29 18:45:11;;;;;;;14.45;11.88;;;;;;;7.36;68.17;98401.05;1674044;84;21206;-73
2021/04/29 18:47:38;;;;;;;18.07;13.98;;;;;;;7.35;68.30;98402.81;1664678;83;21290;-73
2021/04/29 18:50:07;;;;;;;15.32;11.70;;;;;;;7.33;68.57;98412.44;1662474;84;26822;-73
2021/04/29 18:52:34;;;;;;;14.47;11.63;;;;;;;7.32;68.93;98411.23;1666856;83;22481;-73
2021/04/29 18:55:04;;;;;;;14.98;11.33;;;;;;;7.26;68.92;98417.60;1663761;83;21226;-73
2021/04/29 18:57:31;;;;;;;12.78;11.40;;;;;;;7.25;69.05;98416.37;1674523;83;21648;-78
2021/04/29 18:59:59;;;;;;;17.90;12.13;;;;;;;7.23;69.13;98420.83;1668885;84;21183;-81
2021/04/29 19:02:27;;;;;;;15.23;12.05;;;;;;;7.22;69.21;98419.97;1672590;83;26895;-81
2021/04/29 19:04:54;;;;;;;14.47;11.90;;;;;;;7.18;69.36;98426.27;1664190;84;21216;-74
2021/04/29 19:07:22;;;;;;;14.47;10.88;;;;;;;7.14;69.34;98419.55;1674695;83;21231;-74
2021/04/29 19:09:49;;;;;;;14.10;10.98;;;;;;;7.17;69.41;98422.00;1669965;84;21233;-74
2021/04/29 19:12:17;;;;;;;18.27;12.63;;;;;;;7.18;70.52;98410.69;1657011;84;21251;-73
2021/04/29 19:14:44;;;;;;;13.78;10.70;;;;;;;7.19;69.42;98409.75;1672341;83;21261;-74
2021/04/29 19:17:11;;;;;;;19.55;12.30;;;;;;;7.25;69.33;98406.82;1677976;84;22794;-74
2021/04/29 19:19:38;;;;;;;12.93;10.98;;;;;;;7.29;69.39;98405.75;1672028;84;21226;-74
2021/04/29 19:22:05;;;;;;;13.05;11.48;;;;;;;7.32;69.75;98390.00;1660676;84;21683;-74
2021/04/29 19:24:32;;;;;;;16.30;11.05;;;;;;;7.34;70.26;98386.03;1663311;84;21163;-74
2021/04/29 19:26:59;;;;;;;14.43;12.13;;;;;;;7.30;70.36;98381.45;1657493;84;21256;-74
2021/04/29 19:29:27;;;;;;;14.38;12.07;;;;;;;7.27;70.71;98363.45;1667571;84;21247;-74
2021/04/29 19:31:54;;;;;;;14.95;11.18;;;;;;;7.27;71.22;98384.22;1680228;83;21340;-74
2021/04/29 19:34:21;;;;;;;16.23;10.30;;;;;;;7.29;71.50;98366.80;1674077;83;21206;-74
2021/04/29 19:36:48;;;;;;;13.58;11.28;;;;;;;7.35;71.86;98369.05;1679517;83;21654;-74
2021/04/29 19:39:15;;;;;;;13.85;10.35;;;;;;;7.39;71.95;98374.47;1672496;83;21234;-74
2021/04/29 19:41:42;;;;;;;14.78;9.90;;;;;;;7.44;71.71;98374.66;1670154;84;22092;-74
2021/04/29 19:44:09;;;;;;;10.93;9.73;;;;;;;7.45;72.08;98376.32;1674704;84;21561;-75
2021/04/29 19:46:36;;;;;;;11.57;9.85;;;;;;;7.53;72.22;98389.72;1679792;84;21209;-76
2021/04/29 19:49:03;;;;;;;13.58;9.58;;;;;;;7.56;72.00;98370.06;1674304;84;21718;-74
2021/04/29 19:51:30;;;;;;;13.38;9.78;;;;;;;7.56;72.15;98373.95;1648956;84;21595;-74
2021/04/29 19:53:58;;;;;;;16.23;9.45;;;;;;;7.62;71.92;98386.63;1676765;84;21223;-75
2021/04/29 19:56:25;;;;;;;11.88;8.98;;;;;;;7.62;71.74;98384.03;1675821;84;21700;-74
2021/04/29 19:58:52;;;;;;;12.43;10.53;;;;;;;7.62;71.75;98390.52;1677917;84;21609;-74
2021/04/29 20:01:19;;;;;;;12.03;9.38;;;;;;;7.60;71.68;98391.06;1671072;84;21256;-74
2021/04/29 20:03:46;;;;;;;14.05;9.90;;;;;;;7.61;71.91;98400.52;1673911;84;21348;-73
2021/04/29 20:06:13;;;;;;;13.20;10.38;;;;;;;7.60;71.72;98404.88;1675068;84;21250;-73
2021/04/29 20:08:40;;;;;;;14.55;10.50;;;;;;;7.59;71.60;98401.09;1671306;84;21182;-74
2021/04/29 20:11:07;;;;;;;12.15;10.53;;;;;;;7.59;71.53;98417.97;1674251;84;21274;-74
2021/04/29 20:13:34;;;;;;;11.03;9.93;;;;;;;7.61;71.43;98410.91;1680957;84;21280;-74
2021/04/29 20:16:01;;;;;;;14.25;10.98;;;;;;;7.62;71.40;98400.91;1683543;83;21671;-74
2021/04/29 20:18:28;;;;;;;14.15;11.35;;;;;;;7.64;71.41;98404.23;1683441;83;22878;-74
2021/04/29 20:20:55;;;;;;;15.23;11.63;;;;;;;7.65;71.41;98400.73;1677629;83;21210;-74
2021/04/29 20:23:22;;;;;;;16.35;12.20;;;;;;;7.62;71.40;98391.82;1675814;83;21672;-74
2021/04/29 20:25:49;;;;;;;15.75;11.57;;;;;;;7.58;71.39;98386.41;1679319;84;21181;-74
2021/04/29 20:28:16;;;;;;;13.65;11.95;;;;;;;7.56;71.45;98385.21;1677769;83;21730;-74
2021/04/29 20:30:43;;;;;;;14.20;12.07;;;;;;;7.52;71.40;98388.05;1672920;84;21569;-74
2021/04/29 20:33:10;;;;;;;14.83;12.23;;;;;;;7.44;71.47;98391.07;1676986;84;21213;-74
2021/04/29 20:35:37;;;;;;;15.35;11.57;;;;;;;7.40;71.49;98391.71;1679264;84;27474;-74
2021/04/29 20:38:04;;;;;;;14.28;12.15;;;;;;;7.35;71.53;98388.52;1671438;84;21708;-75
2021/04/29 20:40:31;;;;;;;14.03;12.53;;;;;;;7.30;71.81;98394.42;1679899;83;21166;-74
2021/04/29 20:42:58;;;;;;;14.63;13.05;;;;;;;7.21;71.78;98392.34;1689054;83;21429;-75
2021/04/29 20:45:25;;;;;;;15.53;13.43;;;;;;;7.12;71.93;98395.45;1681658;83;21710;-75
2021/04/29 20:47:52;;;;;;;15.00;13.38;;;;;;;7.07;71.90;98387.08;1687248;83;21192;-75
2021/04/29 20:50:19;;;;;;;18.30;12.53;;;;;;;7.01;72.09;98387.41;1677216;83;21752;-75
2021/04/29 20:52:46;;;;;;;16.37;13.80;;;;;;;6.97;72.22;98394.97;1688592;83;21155;-75
2021/04/29 20:55:15;;;;;;;17.77;14.15;;;;;;;6.93;72.16;98391.24;1684667;83;21655;-74
2021/04/29 20:57:42;;;;;;;17.17;14.58;;;;;;;6.87;72.43;98388.98;1686903;83;21178;-74
2021/04/29 21:00:10;;;;;;;16.42;13.30;;;;;;;6.86;72.37;98391.64;1656735;83;28572;-74
2021/04/29 21:02:38;;;;;;;16.32;13.95;;;;;;;6.85;72.42;98390.81;1676281;83;22427;-75
2021/04/29 21:05:06;;;;;;;16.80;14.70;;;;;;;6.72;72.72;98375.08;1690286;83;21264;-75
2021/04/29 21:07:33;;;;;;;18.02;13.98;;;;;;;6.72;72.72;98375.08;1689788;83;22243;-75
2021/04/29 21:10:00;;;;;;;17.10;13.18;;;;;;;6.82;72.74;98393.57;1684762;83;21293;-74
2021/04/29 21:12:27;;;;;;;15.38;13.35;;;;;;;6.80;72.82;98391.51;1686534;83;21163;-75
2021/04/29 21:14:54;;;;;;;15.03;12.47;;;;;;;6.78;73.00;98383.42;1683873;83;21475;-74
2021/04/29 21:17:21;;;;;;;15.98;13.08;;;;;;;6.77;73.10;98390.38;1681387;83;21634;-74
2021/04/29 21:19:48;;;;;;;17.35;14.68;;;;;;;6.77;73.23;98390.38;1679391;84;21237;-75
2021/04/29 21:22:15;;;;;;;;;;;;;;;6.76;73.12;98390.01;1681099;84;21686;-75
2021/04/29 21:24:42;;;;;;;15.68;13.68;;;;;;;6.76;73.43;98378.34;1683648;83;20234;-75
2021/04/29 21:27:09;;;;;;;16.45;13.88;;;;;;;6.72;73.54;98377.67;1685886;83;21178;-75
2021/04/29 21:29:36;;;;;;;17.15;13.98;;;;;;;6.72;73.76;98376.80;1691166;83;21224;-75
2021/04/29 21:32:03;;;;;;;15.95;14.30;;;;;;;6.72;73.46;98367.73;1653193;85;21735;-75
2021/04/29 21:34:30;;;;;;;20.00;14.87;;;;;;;6.71;73.76;98366.06;1687810;83;28485;-75
2021/04/29 21:36:57;;;;;;;17.00;15.08;;;;;;;6.68;73.82;98367.53;1685430;83;21230;-75
2021/04/29 21:39:24;;;;;;;21.27;16.02;;;;;;;6.68;73.61;98368.36;1687898;83;21665;-74
2021/04/29 21:41:51;;;;;;;19.70;15.23;;;;;;;6.71;73.63;98371.25;1698297;83;21272;-74
2021/04/29 21:44:18;;;;;;;19.20;15.60;;;;;;;6.69;73.92;98361.41;1700039;82;21439;-74
2021/04/29 21:46:45;;;;;;;18.07;16.17;;;;;;;6.68;73.79;98364.94;1701411;83;21781;-75
2021/04/29 21:49:12;;;;;;;18.80;15.05;;;;;;;6.68;73.90;98363.17;1695775;83;21327;-75
2021/04/29 21:51:39;;;;;;;17.07;15.28;;;;;;;6.67;74.11;98358.08;1696719;83;21243;-75
2021/04/29 21:54:06;;;;;;;18.35;16.15;;;;;;;6.66;74.25;98351.20;1693642;83;21178;-75
2021/04/29 21:56:33;;;;;;;18.35;16.45;;;;;;;6.64;74.12;98350.47;1689876;83;28602;-75
2021/04/29 21:59:01;;;;;;;20.15;15.80;;;;;;;6.66;74.34;98357.69;1704080;82;21211;-76
2021/04/29 22:01:27;;;;;;;;;;;;;;;6.64;74.34;98353.06;1694642;83;21637;-75
2021/04/29 22:03:54;;;;;;;24.45;18.30;;;;;;;6.64;74.43;98353.06;1700004;83;20291;-75
2021/04/29 22:06:24;;;;;;;22.42;18.70;;;;;;;6.63;74.25;98352.66;1692703;83;21191;-75
2021/04/29 22:08:53;;;;;;;20.32;17.75;;;;;;;6.65;74.35;98356.02;1696067;83;21220;-75
2021/04/29 22:11:22;;;;;;;22.17;18.10;;;;;;;6.65;74.46;98359.45;1697392;83;21617;-74
2021/04/29 22:13:50;;;;;;;20.92;18.57;;;;;;;6.69;74.40;98353.63;1696811;83;21723;-74
2021/04/29 22:16:17;;;;;;;21.75;18.65;;;;;;;6.72;74.42;98348.27;1694113;82;21191;-74
2021/04/29 22:18:44;;;;;;;20.50;18.12;;;;;;;6.71;74.34;98341.42;1695681;83;21211;-75
2021/04/29 22:21:10;;;;;;;21.23;18.98;;;;;;;6.70;74.50;98343.65;1691189;84;22168;-75
2021/04/29 22:23:39;;;;;;;22.75;19.15;;;;;;;6.69;74.67;98346.70;1654546;85;21219;-74
2021/04/29 22:26:10;;;;;;;21.05;18.90;;;;;;;6.68;74.64;98344.18;1684451;82;21021;-75
2021/04/29 22:28:37;;;;;;;21.62;18.85;;;;;;;6.66;74.64;98344.25;1679713;84;21654;-75